Time;durP1;ratioP1;P1;durP2;ratioP2;P2;SDS_P1;SDS_P2;PMS_P1;PMS_P2;Temp;Humidity;BMP_temperature;BMP_pressure;BME280_temperature;BME280_humidity;BME280_pressure;Samples;Min_cycle;Max_cycle;Signal;HPM_P1;HPM_P2
2022/05/14 00:01:36;;;;;;;0.63;0.50;;;12.30;99.90;;;;;;5093727;28;20456;-82
2022/05/14 00:04:03;;;;;;;0.73;0.40;;;12.30;99.90;;;;;;5093813;28;20440;-86
2022/05/14 00:06:31;;;;;;;0.60;0.60;;;12.20;99.90;;;;;;5093359;28;20939;-86
2022/05/14 00:09:01;;;;;;;0.40;0.40;;;12.20;99.90;;;;;;5093577;28;20440;-85
2022/05/14 00:14:13;;;;;;;0.87;0.60;;;12.10;99.90;;;;;;5093396;28;20450;-82
2022/05/14 00:16:41;;;;;;;7.27;0.70;;;12.10;99.90;;;;;;5093493;28;20452;-79
2022/05/14 00:19:09;;;;;;;0.30;0.30;;;12.10;99.90;;;;;;5092891;28;20456;-85
2022/05/14 00:21:36;;;;;;;0.50;0.50;;;12.10;99.90;;;;;;5093275;28;20479;-82
2022/05/14 00:24:04;;;;;;;0.30;0.30;;;12.00;99.90;;;;;;5092876;28;20455;-82
2022/05/14 00:26:30;;;;;;;1.00;0.50;;;12.00;99.90;;;;;;5093129;28;20454;-82
2022/05/14 00:28:57;;;;;;;0.50;0.50;;;12.00;99.90;;;;;;5092885;28;20432;-82
2022/05/14 00:31:24;;;;;;;0.50;0.50;;;12.00;99.90;;;;;;5093001;28;20471;-86
2022/05/14 00:33:52;;;;;;;0.40;0.40;;;11.90;99.90;;;;;;5093204;28;20455;-80
2022/05/14 00:36:19;;;;;;;0.40;0.40;;;11.90;99.90;;;;;;5092847;28;20876;-82
2022/05/14 00:38:45;;;;;;;0.83;0.47;;;11.90;99.90;;;;;;5092884;28;20447;-86
2022/05/14 00:41:12;;;;;;;0.70;0.50;;;11.90;99.90;;;;;;5093009;28;20485;-83
2022/05/14 00:43:49;;;;;;;0.40;0.40;;;11.80;99.90;;;;;;5093288;28;20451;-85
2022/05/14 00:46:19;;;;;;;0.70;0.40;;;11.80;99.90;;;;;;5093152;28;20424;-78
2022/05/14 00:48:47;;;;;;;0.40;0.30;;;11.80;99.90;;;;;;5093149;28;20456;-85
2022/05/14 00:51:20;;;;;;;0.40;0.40;;;11.70;99.90;;;;;;5093153;28;20467;-78
2022/05/14 00:53:53;;;;;;;0.33;0.30;;;11.70;99.90;;;;;;5092995;28;20436;-85
2022/05/14 00:56:27;;;;;;;0.40;0.30;;;11.60;99.90;;;;;;5094377;28;20462;-81
2022/05/14 00:58:59;;;;;;;0.40;0.40;;;11.60;99.90;;;;;;5096651;28;20436;-81
2022/05/14 01:01:26;;;;;;;0.40;0.40;;;11.60;99.90;;;;;;5096941;28;20478;-86
2022/05/14 01:03:53;;;;;;;0.40;0.40;;;11.60;99.90;;;;;;5096474;28;20443;-86
2022/05/14 01:06:22;;;;;;;0.40;0.40;;;11.60;99.90;;;;;;5096629;28;20444;-81
2022/05/14 01:08:49;;;;;;;10.63;0.63;;;11.50;99.90;;;;;;5088218;28;20444;-79
2022/05/14 01:11:17;;;;;;;0.43;0.43;;;11.50;99.90;;;;;;5096326;28;20547;-82
2022/05/14 01:13:45;;;;;;;0.53;0.37;;;11.50;99.90;;;;;;5096259;28;20432;-80
2022/05/14 01:16:11;;;;;;;0.40;0.40;;;11.50;99.90;;;;;;5095990;28;21025;-78
2022/05/14 01:18:39;;;;;;;0.77;0.40;;;11.50;99.90;;;;;;5096433;28;20493;-85
2022/05/14 01:21:13;;;;;;;0.47;0.47;;;11.50;99.90;;;;;;5096257;28;20979;-85
2022/05/14 01:26:36;;;;;;;0.33;0.33;;;11.40;99.90;;;;;;5096254;28;20853;-77
2022/05/14 01:29:06;;;;;;;0.60;0.30;;;11.40;99.90;;;;;;5096097;28;20487;-82
2022/05/14 01:31:33;;;;;;;0.33;0.33;;;11.40;99.90;;;;;;5096199;28;20468;-78
2022/05/14 01:34:02;;;;;;;0.67;0.60;;;11.40;99.90;;;;;;5095654;28;20951;-86
2022/05/14 01:36:28;;;;;;;0.37;0.37;;;11.40;99.90;;;;;;5096176;28;20444;-83
2022/05/14 01:38:56;;;;;;;0.63;0.50;;;11.30;99.90;;;;;;5095631;28;20455;-80
2022/05/14 01:41:22;;;;;;;0.40;0.40;;;11.30;99.90;;;;;;5095635;28;20532;-86
2022/05/14 01:43:51;;;;;;;0.50;0.50;;;11.30;99.90;;;;;;5095795;28;20817;-80
2022/05/14 01:46:19;;;;;;;0.40;0.40;;;11.30;99.90;;;;;;5095957;28;20479;-79
2022/05/14 01:48:47;;;;;;;1.00;0.40;;;11.30;99.90;;;;;;5095986;28;20440;-85
2022/05/14 01:51:14;;;;;;;0.40;0.40;;;11.20;99.90;;;;;;5095949;28;20471;-82
2022/05/14 01:53:40;;;;;;;0.50;0.50;;;11.20;99.90;;;;;;5095563;28;20429;-86
2022/05/14 01:56:08;;;;;;;0.50;0.30;;;11.20;99.90;;;;;;5095400;28;20444;-82
2022/05/14 01:58:37;;;;;;;0.90;0.90;;;11.20;99.90;;;;;;5096037;28;20448;-82
2022/05/14 02:01:09;;;;;;;0.40;0.40;;;11.20;99.90;;;;;;5095472;28;20467;-78
2022/05/14 02:03:36;;;;;;;0.40;0.40;;;11.20;99.90;;;;;;5095301;28;20938;-81
2022/05/14 02:06:03;;;;;;;0.30;0.30;;;11.20;99.90;;;;;;5095352;28;20483;-77
2022/05/14 02:08:30;;;;;;;0.30;0.30;;;11.10;99.90;;;;;;5094441;28;20454;-78
2022/05/14 02:10:57;;;;;;;0.73;0.37;;;11.10;99.90;;;;;;5095275;28;20463;-82
2022/05/14 02:13:25;;;;;;;0.80;0.40;;;11.10;99.90;;;;;;5095662;28;20564;-82
2022/05/14 02:15:53;;;;;;;0.50;0.40;;;11.00;99.90;;;;;;5095206;28;20448;-78
2022/05/14 02:18:21;;;;;;;0.50;0.33;;;11.00;99.90;;;;;;5095184;28;20440;-82
2022/05/14 02:20:48;;;;;;;0.30;0.27;;;11.00;99.90;;;;;;5095099;28;20468;-81
2022/05/14 02:23:15;;;;;;;0.40;0.40;;;10.90;99.90;;;;;;5095092;28;20444;-80
2022/05/14 02:25:43;;;;;;;1.70;0.40;;;11.00;99.90;;;;;;5094823;28;20479;-77
2022/05/14 02:28:10;;;;;;;0.87;0.87;;;10.90;99.90;;;;;;5094934;28;20452;-80
2022/05/14 02:30:37;;;;;;;0.30;0.30;;;10.90;99.90;;;;;;5094801;28;20491;-81
2022/05/14 02:33:05;;;;;;;0.60;0.60;;;10.90;99.90;;;;;;5094826;28;20452;-78
2022/05/14 02:35:33;;;;;;;0.37;0.33;;;10.90;99.90;;;;;;5094765;28;20816;-85
2022/05/14 02:37:59;;;;;;;0.33;0.30;;;10.80;99.90;;;;;;5095290;28;20452;-85
2022/05/14 02:40:26;;;;;;;0.30;0.30;;;10.90;99.90;;;;;;5094421;28;20989;-81
2022/05/14 02:42:53;;;;;;;0.40;0.30;;;10.80;99.90;;;;;;5094430;28;20432;-82
2022/05/14 02:45:20;;;;;;;0.40;0.40;;;10.80;99.90;;;;;;5094504;28;20479;-84
2022/05/14 02:47:47;;;;;;;0.40;0.40;;;10.80;99.90;;;;;;5094845;28;20475;-82
2022/05/14 02:50:14;;;;;;;0.50;0.47;;;10.80;99.90;;;;;;5095470;28;20464;-86
2022/05/14 02:52:42;;;;;;;0.33;0.30;;;10.80;99.90;;;;;;5094496;28;20428;-81
2022/05/14 02:55:09;;;;;;;0.37;0.27;;;10.80;99.90;;;;;;5094136;28;20935;-80
2022/05/14 02:57:36;;;;;;;0.40;0.33;;;10.80;99.90;;;;;;5094106;28;20432;-78
2022/05/14 03:00:05;;;;;;;0.33;0.30;;;10.90;99.90;;;;;;5094029;28;20989;-81
2022/05/14 03:02:33;;;;;;;0.83;0.83;;;10.90;99.90;;;;;;5094299;28;20466;-80
2022/05/14 03:05:01;;;;;;;0.30;0.27;;;11.00;99.90;;;;;;5093906;28;20482;-80
2022/05/14 03:07:28;;;;;;;0.40;0.30;;;11.00;99.90;;;;;;5094175;28;20444;-80
2022/05/14 03:09:56;;;;;;;0.30;0.30;;;11.00;99.90;;;;;;5093834;28;20468;-78
2022/05/14 03:12:24;;;;;;;0.40;0.40;;;11.00;99.90;;;;;;5094098;28;20450;-82
2022/05/14 03:14:51;;;;;;;0.73;0.30;;;11.00;99.90;;;;;;5093875;28;20944;-80
2022/05/14 03:17:18;;;;;;;1.10;0.43;;;11.00;99.90;;;;;;5094075;28;20447;-78
2022/05/14 03:19:45;;;;;;;0.77;0.40;;;11.00;99.90;;;;;;5093665;28;20471;-79
2022/05/14 03:22:12;;;;;;;0.40;0.40;;;11.00;99.90;;;;;;5093998;28;20448;-85
2022/05/14 03:24:39;;;;;;;0.40;0.40;;;10.90;99.90;;;;;;5094183;28;20452;-86
2022/05/14 03:27:10;;;;;;;0.50;0.33;;;10.90;99.90;;;;;;5093644;28;20491;-81
2022/05/14 03:29:37;;;;;;;2.30;0.47;;;10.90;99.90;;;;;;5093560;28;20428;-78
2022/05/14 03:32:04;;;;;;;0.40;0.30;;;10.90;99.90;;;;;;5093876;28;20455;-81
2022/05/14 03:34:32;;;;;;;0.40;0.40;;;10.80;99.90;;;;;;5093597;28;20448;-81
2022/05/14 03:37:00;;;;;;;0.30;0.30;;;10.80;99.90;;;;;;5093688;28;20446;-81
2022/05/14 03:39:27;;;;;;;0.40;0.30;;;10.90;99.90;;;;;;5093397;28;20502;-78
2022/05/14 03:41:54;;;;;;;0.40;0.40;;;10.80;99.90;;;;;;5093610;28;20447;-86
2022/05/14 03:44:22;;;;;;;0.30;0.30;;;10.80;99.90;;;;;;5093602;28;20543;-80
2022/05/14 03:46:49;;;;;;;0.67;0.40;;;10.80;99.90;;;;;;5093452;28;20480;-82
2022/05/14 03:49:16;;;;;;;1.80;0.40;;;10.70;99.90;;;;;;5093678;28;20943;-86
2022/05/14 03:51:42;;;;;;;0.50;0.50;;;10.70;99.90;;;;;;5093406;28;20452;-81
2022/05/14 03:54:09;;;;;;;0.50;0.40;;;10.60;99.90;;;;;;5093915;28;20538;-78
2022/05/14 03:56:39;;;;;;;0.30;0.30;;;10.60;99.90;;;;;;5093399;28;20538;-78
2022/05/14 03:59:06;;;;;;;2.53;0.50;;;10.60;99.90;;;;;;5093636;28;20547;-86
2022/05/14 04:01:34;;;;;;;0.40;0.33;;;10.60;99.90;;;;;;5093314;28;20464;-82
2022/05/14 04:04:01;;;;;;;0.40;0.40;;;10.60;99.90;;;;;;5093093;28;20447;-81
2022/05/14 04:06:28;;;;;;;0.37;0.37;;;10.50;99.90;;;;;;5092903;28;20475;-82
2022/05/14 04:08:55;;;;;;;0.30;0.30;;;10.60;99.90;;;;;;5093184;28;20440;-79
2022/05/14 04:11:22;;;;;;;0.60;0.60;;;10.60;99.90;;;;;;5093203;28;20828;-79
2022/05/14 04:13:49;;;;;;;7.13;2.10;;;10.60;99.90;;;;;;5085104;28;20448;-79
2022/05/14 04:16:15;;;;;;;0.40;0.30;;;10.60;99.90;;;;;;5093155;28;20930;-80
2022/05/14 04:18:43;;;;;;;0.50;0.50;;;10.60;99.90;;;;;;5092827;28;20962;-79
2022/05/14 04:21:10;;;;;;;0.30;0.30;;;10.60;99.90;;;;;;5093328;28;20986;-81
2022/05/14 04:23:37;;;;;;;0.40;0.30;;;10.60;99.90;;;;;;5092979;28;20439;-85
2022/05/14 04:26:04;;;;;;;0.40;0.37;;;10.60;99.90;;;;;;5093126;28;20479;-82
2022/05/14 04:28:31;;;;;;;0.30;0.30;;;10.60;99.90;;;;;;5093204;28;20436;-79
2022/05/14 04:30:58;;;;;;;0.40;0.40;;;10.70;99.90;;;;;;5094080;28;20463;-80
2022/05/14 04:33:27;;;;;;;0.40;0.40;;;10.70;99.90;;;;;;5097117;28;20478;-80
2022/05/14 04:35:55;;;;;;;0.50;0.50;;;10.70;99.90;;;;;;5097324;28;20447;-85
2022/05/14 04:38:22;;;;;;;0.30;0.30;;;10.70;99.90;;;;;;5097373;28;20448;-81
2022/05/14 04:40:49;;;;;;;2.00;0.70;;;10.80;99.90;;;;;;5088448;28;20492;-85
2022/05/14 04:43:16;;;;;;;0.50;0.40;;;10.80;99.90;;;;;;5097039;28;20981;-86
2022/05/14 04:45:44;;;;;;;0.40;0.30;;;10.80;99.90;;;;;;5096886;28;20488;-78
2022/05/14 04:48:11;;;;;;;0.93;0.83;;;10.90;99.90;;;;;;5096984;28;20452;-82
2022/05/14 04:50:39;;;;;;;0.53;0.50;;;10.90;99.90;;;;;;5097272;28;20513;-86
2022/05/14 04:53:08;;;;;;;0.30;0.30;;;10.90;99.90;;;;;;5096957;28;20439;-82
2022/05/14 04:55:34;;;;;;;0.40;0.30;;;11.00;99.90;;;;;;5096829;28;20526;-82
2022/05/14 04:58:02;;;;;;;0.53;0.50;;;11.00;99.90;;;;;;5096933;28;20413;-80
2022/05/14 05:00:28;;;;;;;0.63;0.40;;;11.10;99.90;;;;;;5096277;28;20464;-80
2022/05/14 05:05:40;;;;;;;1.73;0.70;;;11.20;99.90;;;;;;5096660;28;20484;-81
2022/05/14 05:08:09;;;;;;;0.50;0.40;;;11.30;99.90;;;;;;5096219;28;21041;-81
2022/05/14 05:10:37;;;;;;;0.73;0.40;;;11.30;99.90;;;;;;5096423;28;20467;-81
2022/05/14 05:13:04;;;;;;;0.50;0.50;;;11.40;99.90;;;;;;5096063;28;20451;-80
2022/05/14 05:15:31;;;;;;;0.93;0.50;;;11.40;99.90;;;;;;5097076;28;20489;-80
2022/05/14 05:17:57;;;;;;;1.43;0.70;;;11.50;99.90;;;;;;5096341;28;20448;-81
2022/05/14 05:20:24;;;;;;;0.47;0.47;;;11.50;99.90;;;;;;5096226;28;20486;-80
2022/05/14 05:22:51;;;;;;;0.40;0.40;;;11.60;99.90;;;;;;5095909;28;20451;-84
2022/05/14 05:25:20;;;;;;;0.60;0.40;;;11.60;99.90;;;;;;5096477;28;20447;-80
2022/05/14 05:27:46;;;;;;;0.93;0.80;;;11.70;99.90;;;;;;5096016;28;20480;-79
2022/05/14 05:30:14;;;;;;;0.50;0.30;;;11.80;99.90;;;;;;5096300;28;20550;-78
2022/05/14 05:32:41;;;;;;;1.43;0.40;;;11.80;99.90;;;;;;5096090;28;20448;-79
2022/05/14 05:35:09;;;;;;;0.40;0.30;;;11.90;99.90;;;;;;5096107;28;20931;-81
2022/05/14 05:37:36;;;;;;;4.67;1.53;;;11.90;99.90;;;;;;5095661;28;20440;-81
2022/05/14 05:40:03;;;;;;;0.50;0.50;;;12.00;99.90;;;;;;5095611;28;20567;-80
2022/05/14 05:42:32;;;;;;;0.60;0.50;;;12.10;99.90;;;;;;5094354;28;20432;-80
2022/05/14 05:44:59;;;;;;;0.40;0.40;;;12.20;99.90;;;;;;5095867;28;20550;-81
2022/05/14 05:47:26;;;;;;;0.60;0.47;;;12.20;99.90;;;;;;5095712;28;20478;-81
2022/05/14 05:49:52;;;;;;;0.50;0.40;;;12.40;99.90;;;;;;5095471;28;20479;-84
2022/05/14 05:52:19;;;;;;;1.10;0.90;;;12.50;99.90;;;;;;5095691;28;20471;-81
2022/05/14 05:57:34;;;;;;;0.53;0.53;;;13.00;99.90;;;;;;5095697;28;20408;-84
2022/05/14 06:00:01;;;;;;;0.37;0.27;;;13.20;99.90;;;;;;5095514;28;20993;-82
2022/05/14 06:02:28;;;;;;;0.40;0.40;;;13.40;99.90;;;;;;5095221;28;20463;-80
2022/05/14 06:04:54;;;;;;;0.40;0.30;;;13.60;99.90;;;;;;5095474;28;20444;-84
2022/05/14 06:07:21;;;;;;;0.53;0.33;;;13.90;99.90;;;;;;5095260;28;20476;-84
2022/05/14 06:09:48;;;;;;;0.40;0.40;;;14.20;99.90;;;;;;5095307;28;20462;-85
2022/05/14 06:12:15;;;;;;;0.30;0.30;;;14.40;99.90;;;;;;5095686;28;20444;-80
2022/05/14 06:14:44;;;;;;;0.40;0.40;;;14.60;99.90;;;;;;5096194;28;20451;-80
2022/05/14 06:17:11;;;;;;;0.60;0.30;;;14.80;99.90;;;;;;5095459;28;20444;-78
2022/05/14 06:19:38;;;;;;;1.90;0.40;;;15.20;99.90;;;;;;5094768;28;20511;-78
2022/05/14 06:22:05;;;;;;;0.60;0.60;;;15.40;99.90;;;;;;5094798;28;20432;-78
2022/05/14 06:24:32;;;;;;;0.40;0.40;;;15.70;99.90;;;;;;5094992;28;20448;-78
2022/05/14 06:26:59;;;;;;;0.40;0.40;;;16.00;99.90;;;;;;5094876;28;20471;-78
2022/05/14 06:29:26;;;;;;;0.40;0.30;;;16.20;99.90;;;;;;5094789;28;20448;-78
2022/05/14 06:31:54;;;;;;;0.60;0.40;;;16.20;99.90;;;;;;5094602;28;20529;-78
2022/05/14 06:34:21;;;;;;;0.43;0.43;;;16.40;99.90;;;;;;5094649;28;20459;-78
2022/05/14 06:36:47;;;;;;;0.37;0.37;;;16.50;99.90;;;;;;5095071;28;20451;-80
2022/05/14 06:39:14;;;;;;;0.80;0.47;;;16.70;99.90;;;;;;5094547;28;20555;-80
2022/05/14 06:41:41;;;;;;;0.40;0.40;;;17.00;99.90;;;;;;5094334;28;20843;-81
2022/05/14 06:44:08;;;;;;;0.80;0.40;;;17.30;99.90;;;;;;5094598;28;20431;-80
2022/05/14 06:46:35;;;;;;;0.40;0.40;;;17.50;99.90;;;;;;5094762;28;20475;-80
2022/05/14 06:49:05;;;;;;;0.60;0.40;;;17.70;99.90;;;;;;5094601;28;20428;-80
2022/05/14 06:51:33;;;;;;;1.03;0.50;;;18.00;99.90;;;;;;5094392;28;20459;-79
2022/05/14 06:54:02;;;;;;;0.60;0.50;;;18.10;99.90;;;;;;5093910;28;20435;-79
2022/05/14 06:56:32;;;;;;;1.50;0.50;;;18.30;99.90;;;;;;5094474;28;20443;-81
2022/05/14 06:59:00;;;;;;;0.40;0.30;;;18.70;99.90;;;;;;5094385;28;20542;-81
2022/05/14 07:01:28;;;;;;;0.43;0.33;;;18.90;99.90;;;;;;5094197;28;20827;-79
2022/05/14 07:06:45;;;;;;;0.50;0.50;;;19.10;99.90;;;;;;5094115;28;20509;-79
2022/05/14 07:09:14;;;;;;;0.40;0.40;;;19.20;99.90;;;;;;5094102;28;20447;-80
2022/05/14 07:11:42;;;;;;;0.50;0.50;;;19.70;99.90;;;;;;5094142;28;20226;-81
2022/05/14 07:14:10;;;;;;;1.35;0.50;;;20.00;99.90;;;;;;5094078;28;20182;-81
2022/05/14 07:16:37;;;;;;;2.65;0.50;;;20.40;99.90;;;;;;5094173;28;20201;-81
2022/05/14 07:19:06;;;;;;;0.70;0.40;;;20.80;99.90;;;;;;5094011;28;20210;-81
2022/05/14 07:21:33;;;;;;;1.15;0.40;;;21.10;99.90;;;;;;5093871;28;20221;-81
2022/05/14 07:24:03;;;;;;;0.40;0.40;;;21.50;99.90;;;;;;5093893;28;20193;-81
2022/05/14 07:26:30;;;;;;;0.75;0.40;;;21.80;99.90;;;;;;5093683;28;20510;-80
2022/05/14 07:28:57;;;;;;;0.50;0.50;;;22.10;99.20;;;;;;5093848;28;20197;-80
2022/05/14 07:31:23;;;;;;;0.50;0.50;;;22.40;98.60;;;;;;5093487;28;20218;-80
2022/05/14 07:33:51;;;;;;;0.43;0.43;;;22.80;98.10;;;;;;5093786;28;20197;-80
2022/05/14 07:36:20;;;;;;;0.40;0.38;;;22.90;95.80;;;;;;5093948;28;20292;-80
2022/05/14 07:38:48;;;;;;;0.47;0.47;;;22.80;94.00;;;;;;5093696;28;20200;-81
2022/05/14 07:41:17;;;;;;;0.40;0.40;;;23.00;91.90;;;;;;5093424;28;20724;-80
2022/05/14 07:43:48;;;;;;;0.40;0.40;;;23.20;89.10;;;;;;5093357;28;20556;-80
2022/05/14 07:46:18;;;;;;;0.40;0.40;;;23.60;87.00;;;;;;5093578;28;20193;-80
2022/05/14 07:48:47;;;;;;;0.40;0.32;;;24.00;86.60;;;;;;5093728;28;20201;-80
2022/05/14 07:51:14;;;;;;;1.02;0.60;;;24.60;84.70;;;;;;5093116;28;20571;-81
2022/05/14 07:53:41;;;;;;;0.40;0.40;;;25.20;80.50;;;;;;5093458;28;20210;-81
2022/05/14 07:56:09;;;;;;;0.40;0.40;;;26.10;74.90;;;;;;5093472;28;20203;-81
2022/05/14 07:58:38;;;;;;;0.40;0.30;;;26.60;72.90;;;;;;5093096;28;20288;-81
2022/05/14 08:01:05;;;;;;;0.52;0.50;;;27.00;67.80;;;;;;5093305;28;20222;-81
2022/05/14 08:03:32;;;;;;;0.50;0.50;;;27.50;69.20;;;;;;5093067;28;20205;-81
2022/05/14 08:06:00;;;;;;;0.30;0.30;;;27.80;62.20;;;;;;5092742;28;20189;-81
2022/05/14 08:08:27;;;;;;;0.40;0.40;;;28.60;60.20;;;;;;5092978;28;20199;-81
2022/05/14 08:10:55;;;;;;;0.38;0.38;;;29.50;59.20;;;;;;5093207;28;20227;-81
2022/05/14 08:13:25;;;;;;;0.60;0.60;;;29.70;56.20;;;;;;5092986;28;20625;-81
2022/05/14 08:15:53;;;;;;;0.40;0.40;;;29.40;53.90;;;;;;5093219;28;20291;-81
2022/05/14 08:18:20;;;;;;;0.40;0.40;;;28.20;56.40;;;;;;5093174;28;20219;-82
2022/05/14 08:20:50;;;;;;;0.40;0.40;;;27.70;57.60;;;;;;5092836;28;20240;-82
2022/05/14 08:26:03;;;;;;;0.40;0.40;;;26.30;58.40;;;;;;5093009;28;20206;-82
2022/05/14 08:28:31;;;;;;;0.40;0.40;;;25.70;58.60;;;;;;5093155;28;20568;-81
2022/05/14 08:31:00;;;;;;;0.75;0.50;;;25.10;63.00;;;;;;5092636;28;20590;-81
2022/05/14 08:33:27;;;;;;;0.57;0.45;;;24.60;62.80;;;;;;5093050;28;20201;-81
2022/05/14 08:35:54;;;;;;;1.05;0.50;;;24.20;65.50;;;;;;5093079;28;20209;-81
2022/05/14 08:38:23;;;;;;;0.60;0.43;;;24.30;64.70;;;;;;5092946;28;20226;-81
2022/05/14 08:40:55;;;;;;;0.40;0.40;;;24.20;64.90;;;;;;5092727;28;20229;-82
2022/05/14 08:43:25;;;;;;;3.83;0.47;;;24.50;67.60;;;;;;5092770;28;20703;-82
2022/05/14 08:45:52;;;;;;;0.40;0.40;;;24.70;66.10;;;;;;5092589;28;20665;-82
2022/05/14 08:48:25;;;;;;;0.40;0.40;;;24.60;65.90;;;;;;5092681;28;20201;-81
2022/05/14 08:50:57;;;;;;;0.50;0.40;;;24.30;62.80;;;;;;5092870;28;20229;-86
2022/05/14 08:53:27;;;;;;;0.63;0.50;;;24.10;64.10;;;;;;5092919;28;20185;-85
2022/05/14 08:56:07;;;;;;;0.38;0.38;;;23.90;64.70;;;;;;5093000;28;20211;-86
2022/05/14 08:58:45;;;;;;;0.50;0.50;;;23.80;66.10;;;;;;5093295;28;20319;-86
2022/05/14 09:01:17;;;;;;;0.40;0.40;;;23.70;67.30;;;;;;5092939;28;20705;-86
2022/05/14 09:03:46;;;;;;;0.40;0.40;;;23.50;70.30;;;;;;5092946;28;20193;-86
2022/05/14 09:06:12;;;;;;;0.40;0.40;;;23.40;67.70;;;;;;5092840;28;20174;-84
2022/05/14 09:08:40;;;;;;;5.63;0.60;;;23.30;68.70;;;;;;5093176;28;20208;-86
2022/05/14 09:11:17;;;;;;;0.40;0.40;;;23.30;67.70;;;;;;5092722;28;20225;-85
2022/05/14 09:13:47;;;;;;;0.40;0.40;;;23.40;68.70;;;;;;5092399;28;20547;-85
2022/05/14 09:16:23;;;;;;;0.85;0.60;;;23.50;69.20;;;;;;5093078;28;20665;-87
2022/05/14 09:18:53;;;;;;;0.40;0.40;;;23.70;68.50;;;;;;5096965;28;20569;-87
2022/05/14 09:21:24;;;;;;;0.43;0.43;;;23.90;69.20;;;;;;5096698;28;20255;-88
2022/05/14 09:23:54;;;;;;;0.73;0.43;;;23.70;68.00;;;;;;5097109;28;20189;-86
2022/05/14 09:26:25;;;;;;;0.40;0.40;;;23.70;69.80;;;;;;5096736;28;20611;-86
2022/05/14 09:28:55;;;;;;;0.40;0.40;;;23.70;67.70;;;;;;5096415;28;20185;-86
2022/05/14 09:31:32;;;;;;;1.00;0.50;;;23.60;67.70;;;;;;5096125;28;20727;-88
2022/05/14 09:34:06;;;;;;;0.40;0.40;;;23.70;65.50;;;;;;5096555;28;20240;-87
2022/05/14 09:36:37;;;;;;;0.50;0.40;;;23.60;67.10;;;;;;5096391;28;20181;-87
2022/05/14 09:39:07;;;;;;;0.40;0.40;;;23.60;66.20;;;;;;5096198;28;20213;-88
2022/05/14 09:41:41;;;;;;;0.77;0.50;;;23.60;68.00;;;;;;5096172;28;20229;-86
2022/05/14 09:44:16;;;;;;;0.40;0.40;;;23.60;68.90;;;;;;5095796;28;20181;-82
2022/05/14 09:46:43;;;;;;;0.40;0.40;;;23.50;73.10;;;;;;5095960;28;20185;-83
2022/05/14 09:49:20;;;;;;;0.40;0.40;;;23.40;69.20;;;;;;5095474;28;20205;-82
2022/05/14 09:51:52;;;;;;;0.40;0.40;;;23.30;67.20;;;;;;5095344;28;20218;-85
2022/05/14 09:54:23;;;;;;;0.77;0.50;;;23.40;66.50;;;;;;5095727;28;20198;-80
2022/05/14 09:57:21;;;;;;;0.50;0.50;;;23.50;69.90;;;;;;5095663;28;20190;-81
2022/05/14 10:00:08;;;;;;;1.50;0.40;;;23.60;67.70;;;;;;5095280;28;20217;-81
2022/05/14 10:02:48;;;;;;;0.40;0.40;;;23.60;66.10;;;;;;5095539;28;20174;-81
2022/05/14 10:05:27;;;;;;;0.40;0.40;;;23.50;66.90;;;;;;5095517;28;20178;-81
2022/05/14 10:08:00;;;;;;;0.30;0.30;;;23.50;69.90;;;;;;5095434;28;20217;-81
2022/05/14 10:10:39;;;;;;;0.50;0.50;;;23.50;71.50;;;;;;5095202;28;20223;-81
2022/05/14 10:13:14;;;;;;;1.35;0.40;;;23.60;67.10;;;;;;5095158;28;20185;-81
2022/05/14 10:15:47;;;;;;;0.70;0.70;;;23.60;66.60;;;;;;5095445;28;20189;-81
2022/05/14 10:18:32;;;;;;;0.60;0.40;;;23.50;67.00;;;;;;5095118;28;20210;-81
2022/05/14 10:21:06;;;;;;;0.57;0.35;;;23.60;65.00;;;;;;5094740;28;20225;-81
2022/05/14 10:26:49;;;;;;;0.60;0.45;;;23.80;67.80;;;;;;5092209;28;20266;-82
2022/05/14 10:29:33;;;;;;;0.40;0.40;;;23.90;64.40;;;;;;5094435;28;20185;-81
2022/05/14 10:32:03;;;;;;;0.40;0.40;;;24.20;63.70;;;;;;5094674;28;20643;-82
2022/05/14 10:34:39;;;;;;;1.15;0.40;;;24.00;65.60;;;;;;5094485;28;20201;-83
2022/05/14 10:37:15;;;;;;;0.57;0.57;;;24.20;62.80;;;;;;5094455;28;20185;-82
2022/05/14 10:39:49;;;;;;;0.40;0.32;;;24.10;62.80;;;;;;5095285;28;20189;-88
2022/05/14 10:42:21;;;;;;;0.40;0.30;;;24.00;64.40;;;;;;5095646;28;20276;-89
2022/05/14 10:44:52;;;;;;;0.60;0.60;;;23.70;63.00;;;;;;5095324;28;20535;-83
2022/05/14 10:47:20;;;;;;;0.50;0.50;;;23.80;62.50;;;;;;5094374;28;20200;-83
2022/05/14 10:49:53;;;;;;;0.40;0.40;;;24.00;62.50;;;;;;5094491;28;20228;-82
2022/05/14 10:52:22;;;;;;;0.60;0.40;;;24.10;62.10;;;;;;5094421;28;20546;-82
2022/05/14 10:54:49;;;;;;;0.40;0.35;;;24.40;60.80;;;;;;5094495;28;20233;-82
2022/05/14 10:57:43;;;;;;;0.40;0.40;;;24.40;61.50;;;;;;5094509;28;20207;-85
2022/05/14 11:00:19;;;;;;;0.35;0.32;;;24.70;62.10;;;;;;5094056;28;20218;-86
2022/05/14 11:02:54;;;;;;;0.60;0.50;;;25.10;61.10;;;;;;5094533;28;20185;-85
2022/05/14 11:05:30;;;;;;;0.50;0.40;;;24.80;59.70;;;;;;5094145;28;20177;-86
2022/05/14 11:08:13;;;;;;;0.70;0.50;;;24.90;60.10;;;;;;5094197;28;20200;-86
2022/05/14 11:10:40;;;;;;;0.95;0.43;;;24.90;59.70;;;;;;5094179;28;20228;-86
2022/05/14 11:13:17;;;;;;;0.40;0.40;;;24.80;58.60;;;;;;5094167;28;20201;-89
2022/05/14 11:15:44;;;;;;;0.52;0.40;;;24.60;59.10;;;;;;5094316;28;20177;-86
2022/05/14 11:18:14;;;;;;;0.40;0.40;;;24.30;61.20;;;;;;5094073;28;20233;-86
2022/05/14 11:20:54;;;;;;;0.40;0.30;;;24.10;61.40;;;;;;5094143;28;20236;-87
2022/05/14 11:23:23;;;;;;;1.13;0.40;;;24.00;63.50;;;;;;5094328;28;20189;-86
2022/05/14 11:26:04;;;;;;;0.43;0.43;;;23.90;60.60;;;;;;5094009;28;20289;-81
2022/05/14 11:28:31;;;;;;;0.40;0.40;;;23.90;60.30;;;;;;5093852;28;20182;-81
2022/05/14 11:31:13;;;;;;;0.30;0.30;;;23.70;61.30;;;;;;5093876;28;20229;-81
2022/05/14 11:33:41;;;;;;;1.83;0.40;;;23.50;61.60;;;;;;5093785;28;20338;-81
2022/05/14 11:36:21;;;;;;;0.50;0.50;;;23.40;66.20;;;;;;5093685;28;20755;-86
2022/05/14 11:39:09;;;;;;;1.07;0.50;;;23.40;65.40;;;;;;5093905;28;20209;-87
2022/05/14 11:41:38;;;;;;;0.50;0.50;;;23.40;64.90;;;;;;5092772;28;20237;-87
2022/05/14 11:44:06;;;;;;;0.60;0.30;;;23.40;64.40;;;;;;5093817;28;20212;-86
2022/05/14 11:46:40;;;;;;;0.50;0.40;;;23.30;64.40;;;;;;5093715;28;20205;-86
2022/05/14 11:49:15;;;;;;;0.80;0.60;;;23.30;62.90;;;;;;5093774;28;20190;-86
2022/05/14 11:51:50;;;;;;;0.60;0.50;;;23.40;65.40;;;;;;5093595;28;20719;-87
2022/05/14 11:54:24;;;;;;;0.50;0.40;;;23.30;65.20;;;;;;5094152;28;20196;-87
2022/05/14 11:56:58;;;;;;;0.50;0.50;;;23.10;63.20;;;;;;5093615;28;20196;-86
2022/05/14 11:59:32;;;;;;;2.30;0.50;;;23.10;68.60;;;;;;5093482;28;20561;-85
2022/05/14 12:02:01;;;;;;;0.40;0.40;;;23.20;63.70;;;;;;5093326;28;20536;-86
2022/05/14 12:04:31;;;;;;;0.50;0.40;;;23.40;60.50;;;;;;5093708;28;20197;-86
2022/05/14 12:07:22;;;;;;;0.40;0.40;;;23.40;61.70;;;;;;5093545;28;20186;-86
2022/05/14 12:10:08;;;;;;;0.50;0.50;;;23.40;60.90;;;;;;5073105;28;20221;-86
2022/05/14 12:12:42;;;;;;;0.57;0.57;;;23.30;59.70;;;;;;5093447;28;20192;-86
2022/05/14 12:15:13;;;;;;;0.70;0.40;;;23.20;60.90;;;;;;5093580;28;20184;-86
2022/05/14 12:17:47;;;;;;;0.40;0.40;;;23.10;62.00;;;;;;5093838;28;20189;-86
2022/05/14 12:20:19;;;;;;;1.03;0.30;;;23.10;63.40;;;;;;5093701;28;20217;-86
2022/05/14 12:22:53;;;;;;;0.40;0.40;;;23.00;63.30;;;;;;5093578;28;20634;-86
2022/05/14 12:25:21;;;;;;;0.60;0.60;;;23.00;64.40;;;;;;5093904;28;20802;-86
2022/05/14 12:27:50;;;;;;;0.47;0.47;;;23.10;63.50;;;;;;5093089;28;20938;-86
2022/05/14 12:33:15;;;;;;;0.40;0.30;;;23.00;61.50;;;;;;5093183;28;20185;-86
2022/05/14 12:35:51;;;;;;;0.40;0.40;;;22.90;60.90;;;;;;5093770;28;20201;-86
2022/05/14 12:38:22;;;;;;;1.03;0.50;;;22.70;61.90;;;;;;5093125;28;20471;-86
2022/05/14 12:40:50;;;;;;;0.40;0.40;;;22.60;63.30;;;;;;5093193;28;20486;-85
2022/05/14 12:43:17;;;;;;;0.40;0.40;;;22.60;63.80;;;;;;5093262;28;20451;-86
2022/05/14 12:45:46;;;;;;;0.40;0.40;;;22.70;65.20;;;;;;5093404;28;20948;-84
2022/05/14 12:48:14;;;;;;;0.50;0.50;;;22.60;65.80;;;;;;5092944;28;21024;-85
2022/05/14 12:50:53;;;;;;;0.50;0.50;;;22.60;65.00;;;;;;5093050;28;20217;-85
2022/05/14 12:53:20;;;;;;;0.70;0.63;;;22.50;64.10;;;;;;5096231;28;20625;-83
2022/05/14 12:55:51;;;;;;;0.40;0.30;;;22.50;65.80;;;;;;5096679;28;20891;-86
2022/05/14 12:58:19;;;;;;;0.40;0.40;;;22.40;65.70;;;;;;5096719;28;20463;-88
2022/05/14 13:00:48;;;;;;;0.53;0.40;;;22.50;64.90;;;;;;5096911;28;20500;-82
2022/05/14 13:03:20;;;;;;;0.50;0.47;;;22.60;61.70;;;;;;5097498;28;20439;-84
2022/05/14 13:05:54;;;;;;;0.40;0.40;;;22.50;61.50;;;;;;5096543;28;21005;-85
2022/05/14 13:08:23;;;;;;;0.60;0.40;;;22.40;60.90;;;;;;5096719;28;20420;-87
2022/05/14 13:10:54;;;;;;;0.50;0.50;;;22.30;60.40;;;;;;5096497;28;20530;-84
2022/05/14 13:13:31;;;;;;;3.43;0.87;;;22.10;61.90;;;;;;5096568;28;21005;-86
2022/05/14 13:15:58;;;;;;;0.40;0.40;;;22.00;61.30;;;;;;5096580;28;20434;-84
2022/05/14 13:18:28;;;;;;;0.77;0.50;;;22.00;63.60;;;;;;5096315;28;20481;-84
2022/05/14 13:21:00;;;;;;;0.40;0.30;;;22.00;61.40;;;;;;5096981;28;20486;-87
2022/05/14 13:23:28;;;;;;;0.30;0.30;;;21.90;61.40;;;;;;5096452;28;20451;-84